sensor_id;sensor_type;location;lat;lon;timestamp;temperature;humidity
20422;DHT22;10370;53.102;18.034;2023-09-12T00:01:20;14.80;99.90
20422;DHT22;10370;53.102;18.034;2023-09-12T00:06:43;14.80;99.90
20422;DHT22;10370;53.102;18.034;2023-09-12T00:12:06;14.70;99.90
20422;DHT22;10370;53.102;18.034;2023-09-12T00:17:30;14.60;99.90
20422;DHT22;10370;53.102;18.034;2023-09-12T00:22:53;14.60;99.90
20422;DHT22;10370;53.102;18.034;2023-09-12T00:28:17;14.60;99.90
20422;DHT22;10370;53.102;18.034;2023-09-12T00:33:39;14.50;99.90
20422;DHT22;10370;53.102;18.034;2023-09-12T00:39:02;14.50;99.90
20422;DHT22;10370;53.102;18.034;2023-09-12T00:44:25;14.60;99.90
20422;DHT22;10370;53.102;18.034;2023-09-12T00:49:49;14.40;99.90
20422;DHT22;10370;53.102;18.034;2023-09-12T00:55:17;14.30;99.90
20422;DHT22;10370;53.102;18.034;2023-09-12T01:00:41;14.20;99.90
20422;DHT22;10370;53.102;18.034;2023-09-12T01:06:06;14.20;99.90
20422;DHT22;10370;53.102;18.034;2023-09-12T01:11:29;14.10;99.90
20422;DHT22;10370;53.102;18.034;2023-09-12T01:16:52;14.10;99.90
20422;DHT22;10370;53.102;18.034;2023-09-12T01:28:08;14.00;99.90
20422;DHT22;10370;53.102;18.034;2023-09-12T01:33:32;13.90;99.90
20422;DHT22;10370;53.102;18.034;2023-09-12T01:38:54;13.70;99.90
20422;DHT22;10370;53.102;18.034;2023-09-12T01:44:18;13.70;99.90
20422;DHT22;10370;53.102;18.034;2023-09-12T01:49:44;13.70;99.90
20422;DHT22;10370;53.102;18.034;2023-09-12T01:55:08;13.60;99.90
20422;DHT22;10370;53.102;18.034;2023-09-12T02:00:33;13.50;99.90
20422;DHT22;10370;53.102;18.034;2023-09-12T02:05:56;13.30;99.90
20422;DHT22;10370;53.102;18.034;2023-09-12T02:11:19;13.40;99.90
20422;DHT22;10370;53.102;18.034;2023-09-12T02:16:42;13.40;99.90
20422;DHT22;10370;53.102;18.034;2023-09-12T02:22:05;13.40;99.90
20422;DHT22;10370;53.102;18.034;2023-09-12T02:27:28;13.40;99.90
20422;DHT22;10370;53.102;18.034;2023-09-12T02:32:52;13.40;99.90
20422;DHT22;10370;53.102;18.034;2023-09-12T02:38:15;13.30;99.90
20422;DHT22;10370;53.102;18.034;2023-09-12T02:43:38;13.40;99.90
20422;DHT22;10370;53.102;18.034;2023-09-12T02:49:03;13.30;99.90
20422;DHT22;10370;53.102;18.034;2023-09-12T02:54:26;13.30;99.90
20422;DHT22;10370;53.102;18.034;2023-09-12T02:59:49;13.20;99.90
20422;DHT22;10370;53.102;18.034;2023-09-12T03:05:11;13.10;99.90
20422;DHT22;10370;53.102;18.034;2023-09-12T03:10:34;13.10;99.90
20422;DHT22;10370;53.102;18.034;2023-09-12T03:15:57;13.10;99.90
20422;DHT22;10370;53.102;18.034;2023-09-12T03:21:20;13.00;99.90
20422;DHT22;10370;53.102;18.034;2023-09-12T03:26:45;12.90;99.90
20422;DHT22;10370;53.102;18.034;2023-09-12T03:32:07;12.90;99.90
20422;DHT22;10370;53.102;18.034;2023-09-12T03:37:31;12.90;99.90
20422;DHT22;10370;53.102;18.034;2023-09-12T03:42:54;12.90;99.90
20422;DHT22;10370;53.102;18.034;2023-09-12T03:48:17;12.90;99.90
20422;DHT22;10370;53.102;18.034;2023-09-12T03:53:39;12.80;99.90
20422;DHT22;10370;53.102;18.034;2023-09-12T03:59:02;12.70;99.90
20422;DHT22;10370;53.102;18.034;2023-09-12T04:04:25;12.70;99.90
20422;DHT22;10370;53.102;18.034;2023-09-12T04:09:48;12.70;99.90
20422;DHT22;10370;53.102;18.034;2023-09-12T04:15:11;12.60;99.90
20422;DHT22;10370;53.102;18.034;2023-09-12T04:20:33;12.60;99.90
20422;DHT22;10370;53.102;18.034;2023-09-12T04:25:57;12.50;99.90
20422;DHT22;10370;53.102;18.034;2023-09-12T04:31:23;12.50;99.90
20422;DHT22;10370;53.102;18.034;2023-09-12T04:36:50;12.50;99.90
20422;DHT22;10370;53.102;18.034;2023-09-12T04:42:12;12.40;99.90
20422;DHT22;10370;53.102;18.034;2023-09-12T04:47:35;12.50;99.90
20422;DHT22;10370;53.102;18.034;2023-09-12T04:52:58;13.10;99.90
20422;DHT22;10370;53.102;18.034;2023-09-12T04:58:21;14.70;99.90
20422;DHT22;10370;53.102;18.034;2023-09-12T05:03:44;15.80;99.90
20422;DHT22;10370;53.102;18.034;2023-09-12T05:09:07;17.60;99.90
20422;DHT22;10370;53.102;18.034;2023-09-12T05:14:31;18.70;99.90
20422;DHT22;10370;53.102;18.034;2023-09-12T05:19:54;19.40;99.90
20422;DHT22;10370;53.102;18.034;2023-09-12T05:25:16;19.50;99.90
20422;DHT22;10370;53.102;18.034;2023-09-12T05:30:39;17.30;99.90
20422;DHT22;10370;53.102;18.034;2023-09-12T05:36:02;16.60;99.90
20422;DHT22;10370;53.102;18.034;2023-09-12T05:41:25;16.20;99.90
20422;DHT22;10370;53.102;18.034;2023-09-12T05:46:48;15.60;99.90
20422;DHT22;10370;53.102;18.034;2023-09-12T05:52:11;15.40;99.90
20422;DHT22;10370;53.102;18.034;2023-09-12T05:57:33;15.50;99.90
20422;DHT22;10370;53.102;18.034;2023-09-12T06:02:56;15.60;99.90
20422;DHT22;10370;53.102;18.034;2023-09-12T06:08:19;15.60;99.90
20422;DHT22;10370;53.102;18.034;2023-09-12T06:13:41;15.70;99.90
20422;DHT22;10370;53.102;18.034;2023-09-12T06:19:04;15.90;99.90
20422;DHT22;10370;53.102;18.034;2023-09-12T06:24:27;16.10;99.90
20422;DHT22;10370;53.102;18.034;2023-09-12T06:29:49;16.40;99.90
20422;DHT22;10370;53.102;18.034;2023-09-12T06:35:12;16.70;99.90
20422;DHT22;10370;53.102;18.034;2023-09-12T06:40:35;17.00;99.90
20422;DHT22;10370;53.102;18.034;2023-09-12T06:45:58;17.40;99.90
20422;DHT22;10370;53.102;18.034;2023-09-12T06:51:24;17.70;99.90
20422;DHT22;10370;53.102;18.034;2023-09-12T06:56:51;18.00;99.90
20422;DHT22;10370;53.102;18.034;2023-09-12T07:02:13;18.30;99.90
20422;DHT22;10370;53.102;18.034;2023-09-12T07:07:36;18.50;99.90
20422;DHT22;10370;53.102;18.034;2023-09-12T07:12:58;18.60;99.90
20422;DHT22;10370;53.102;18.034;2023-09-12T07:18:21;18.90;99.90
20422;DHT22;10370;53.102;18.034;2023-09-12T07:23:44;19.30;99.90
20422;DHT22;10370;53.102;18.034;2023-09-12T07:29:07;19.50;99.90
20422;DHT22;10370;53.102;18.034;2023-09-12T07:34:30;19.70;99.90
20422;DHT22;10370;53.102;18.034;2023-09-12T07:39:52;19.90;99.90
20422;DHT22;10370;53.102;18.034;2023-09-12T07:45:15;20.10;99.90
20422;DHT22;10370;53.102;18.034;2023-09-12T07:50:38;20.40;99.90
20422;DHT22;10370;53.102;18.034;2023-09-12T07:56:02;20.70;99.90
20422;DHT22;10370;53.102;18.034;2023-09-12T08:01:25;20.90;99.90
20422;DHT22;10370;53.102;18.034;2023-09-12T08:06:49;21.10;99.90
20422;DHT22;10370;53.102;18.034;2023-09-12T08:12:20;21.40;99.90
20422;DHT22;10370;53.102;18.034;2023-09-12T08:17:43;21.70;99.90
20422;DHT22;10370;53.102;18.034;2023-09-12T08:23:06;21.70;99.90
20422;DHT22;10370;53.102;18.034;2023-09-12T08:28:28;21.90;99.90
20422;DHT22;10370;53.102;18.034;2023-09-12T08:33:51;22.20;99.90
20422;DHT22;10370;53.102;18.034;2023-09-12T08:39:16;22.20;99.90
20422;DHT22;10370;53.102;18.034;2023-09-12T08:44:40;22.40;99.90
20422;DHT22;10370;53.102;18.034;2023-09-12T08:50:04;22.50;99.90
20422;DHT22;10370;53.102;18.034;2023-09-12T08:55:27;22.60;99.90
20422;DHT22;10370;53.102;18.034;2023-09-12T09:00:51;22.70;99.90
20422;DHT22;10370;53.102;18.034;2023-09-12T09:06:16;22.80;99.90
20422;DHT22;10370;53.102;18.034;2023-09-12T09:11:39;23.30;99.90
20422;DHT22;10370;53.102;18.034;2023-09-12T09:17:02;23.40;99.90
20422;DHT22;10370;53.102;18.034;2023-09-12T09:22:25;23.30;99.90
20422;DHT22;10370;53.102;18.034;2023-09-12T09:27:48;23.30;99.90
20422;DHT22;10370;53.102;18.034;2023-09-12T09:33:11;23.70;99.90
20422;DHT22;10370;53.102;18.034;2023-09-12T09:38:35;23.90;99.90
20422;DHT22;10370;53.102;18.034;2023-09-12T09:43:58;23.90;99.90
20422;DHT22;10370;53.102;18.034;2023-09-12T09:49:22;24.00;99.90
20422;DHT22;10370;53.102;18.034;2023-09-12T09:54:44;24.20;99.90
20422;DHT22;10370;53.102;18.034;2023-09-12T10:00:09;24.60;99.90
20422;DHT22;10370;53.102;18.034;2023-09-12T10:05:37;24.70;99.90
20422;DHT22;10370;53.102;18.034;2023-09-12T10:11:01;24.60;99.90
20422;DHT22;10370;53.102;18.034;2023-09-12T10:16:26;24.50;99.90
20422;DHT22;10370;53.102;18.034;2023-09-12T10:27:22;24.60;99.90
20422;DHT22;10370;53.102;18.034;2023-09-12T10:32:47;24.80;99.90
20422;DHT22;10370;53.102;18.034;2023-09-12T10:38:12;24.70;99.90
20422;DHT22;10370;53.102;18.034;2023-09-12T10:43:37;24.90;99.90
20422;DHT22;10370;53.102;18.034;2023-09-12T10:49:01;25.10;99.90
20422;DHT22;10370;53.102;18.034;2023-09-12T10:54:25;25.40;99.90
20422;DHT22;10370;53.102;18.034;2023-09-12T11:05:37;25.20;99.90
20422;DHT22;10370;53.102;18.034;2023-09-12T11:11:21;25.60;99.90
20422;DHT22;10370;53.102;18.034;2023-09-12T11:22:31;25.40;99.90
20422;DHT22;10370;53.102;18.034;2023-09-12T11:33:17;25.80;99.90
20422;DHT22;10370;53.102;18.034;2023-09-12T11:38:39;25.70;99.90
20422;DHT22;10370;53.102;18.034;2023-09-12T11:44:06;25.60;99.90
20422;DHT22;10370;53.102;18.034;2023-09-12T11:49:37;25.70;99.90
20422;DHT22;10370;53.102;18.034;2023-09-12T11:55:00;25.90;99.90
20422;DHT22;10370;53.102;18.034;2023-09-12T12:00:23;26.10;99.90
20422;DHT22;10370;53.102;18.034;2023-09-12T12:05:49;26.20;99.90
20422;DHT22;10370;53.102;18.034;2023-09-12T12:11:12;26.10;99.90
20422;DHT22;10370;53.102;18.034;2023-09-12T12:16:35;26.20;99.90
20422;DHT22;10370;53.102;18.034;2023-09-12T12:22:08;26.30;99.90
20422;DHT22;10370;53.102;18.034;2023-09-12T12:27:32;26.40;99.90
20422;DHT22;10370;53.102;18.034;2023-09-12T12:32:55;26.30;99.90
20422;DHT22;10370;53.102;18.034;2023-09-12T12:38:18;26.30;99.90
20422;DHT22;10370;53.102;18.034;2023-09-12T12:43:42;26.70;99.90
20422;DHT22;10370;53.102;18.034;2023-09-12T12:49:05;26.70;99.90
20422;DHT22;10370;53.102;18.034;2023-09-12T12:54:31;26.60;99.90
20422;DHT22;10370;53.102;18.034;2023-09-12T12:59:56;26.40;99.90
20422;DHT22;10370;53.102;18.034;2023-09-12T13:05:32;26.50;99.90
20422;DHT22;10370;53.102;18.034;2023-09-12T13:10:55;26.70;99.90
20422;DHT22;10370;53.102;18.034;2023-09-12T13:16:18;26.50;99.90
20422;DHT22;10370;53.102;18.034;2023-09-12T13:21:41;26.50;99.90
20422;DHT22;10370;53.102;18.034;2023-09-12T13:27:05;26.60;99.90
20422;DHT22;10370;53.102;18.034;2023-09-12T13:32:28;26.90;99.90
20422;DHT22;10370;53.102;18.034;2023-09-12T13:37:50;26.80;99.90
20422;DHT22;10370;53.102;18.034;2023-09-12T13:43:13;26.80;99.90
20422;DHT22;10370;53.102;18.034;2023-09-12T13:48:38;26.70;99.90
20422;DHT22;10370;53.102;18.034;2023-09-12T13:54:00;26.80;99.90
20422;DHT22;10370;53.102;18.034;2023-09-12T13:59:23;26.70;99.90
20422;DHT22;10370;53.102;18.034;2023-09-12T14:04:48;26.60;99.90
20422;DHT22;10370;53.102;18.034;2023-09-12T14:10:20;26.60;99.90
20422;DHT22;10370;53.102;18.034;2023-09-12T14:15:52;26.60;99.90
20422;DHT22;10370;53.102;18.034;2023-09-12T14:21:16;26.60;99.90
20422;DHT22;10370;53.102;18.034;2023-09-12T14:26:40;26.70;99.90
20422;DHT22;10370;53.102;18.034;2023-09-12T14:32:03;26.80;99.90
20422;DHT22;10370;53.102;18.034;2023-09-12T14:37:26;26.80;99.90
20422;DHT22;10370;53.102;18.034;2023-09-12T14:42:50;26.80;99.90
20422;DHT22;10370;53.102;18.034;2023-09-12T14:48:12;26.70;99.90
20422;DHT22;10370;53.102;18.034;2023-09-12T14:53:35;26.70;99.90
20422;DHT22;10370;53.102;18.034;2023-09-12T14:58:58;26.60;99.90
20422;DHT22;10370;53.102;18.034;2023-09-12T15:04:27;26.70;99.90
20422;DHT22;10370;53.102;18.034;2023-09-12T15:09:50;26.70;99.90
20422;DHT22;10370;53.102;18.034;2023-09-12T15:15:12;26.60;99.90
20422;DHT22;10370;53.102;18.034;2023-09-12T15:20:36;26.50;99.90
20422;DHT22;10370;53.102;18.034;2023-09-12T15:25:58;26.60;99.90
20422;DHT22;10370;53.102;18.034;2023-09-12T15:31:21;26.60;99.90
20422;DHT22;10370;53.102;18.034;2023-09-12T15:36:45;26.50;99.90
20422;DHT22;10370;53.102;18.034;2023-09-12T15:42:09;26.40;99.90
20422;DHT22;10370;53.102;18.034;2023-09-12T15:47:48;26.30;99.90
20422;DHT22;10370;53.102;18.034;2023-09-12T15:53:10;26.30;99.90
20422;DHT22;10370;53.102;18.034;2023-09-12T15:58:33;26.20;99.90
20422;DHT22;10370;53.102;18.034;2023-09-12T16:03:56;26.00;99.90
20422;DHT22;10370;53.102;18.034;2023-09-12T16:09:20;25.80;99.90
20422;DHT22;10370;53.102;18.034;2023-09-12T16:14:43;25.70;99.90
20422;DHT22;10370;53.102;18.034;2023-09-12T16:20:06;25.40;99.90
20422;DHT22;10370;53.102;18.034;2023-09-12T16:25:32;25.20;99.90
20422;DHT22;10370;53.102;18.034;2023-09-12T16:30:54;24.90;99.90
20422;DHT22;10370;53.102;18.034;2023-09-12T16:36:17;24.70;99.90
20422;DHT22;10370;53.102;18.034;2023-09-12T16:41:40;24.40;99.90
20422;DHT22;10370;53.102;18.034;2023-09-12T16:47:03;24.20;99.90
20422;DHT22;10370;53.102;18.034;2023-09-12T16:52:27;24.00;99.90
20422;DHT22;10370;53.102;18.034;2023-09-12T16:57:52;23.70;99.90
20422;DHT22;10370;53.102;18.034;2023-09-12T17:03:14;23.40;99.90
20422;DHT22;10370;53.102;18.034;2023-09-12T17:08:37;23.20;99.90
20422;DHT22;10370;53.102;18.034;2023-09-12T17:14:00;23.10;99.90
20422;DHT22;10370;53.102;18.034;2023-09-12T17:19:26;22.90;99.90
20422;DHT22;10370;53.102;18.034;2023-09-12T17:24:48;22.60;99.90
20422;DHT22;10370;53.102;18.034;2023-09-12T17:30:11;22.30;99.90
20422;DHT22;10370;53.102;18.034;2023-09-12T17:35:34;22.10;99.90
20422;DHT22;10370;53.102;18.034;2023-09-12T17:40:57;21.70;99.90
20422;DHT22;10370;53.102;18.034;2023-09-12T17:46:20;21.60;99.90
20422;DHT22;10370;53.102;18.034;2023-09-12T17:51:42;21.60;99.90
20422;DHT22;10370;53.102;18.034;2023-09-12T17:57:05;21.40;99.90
20422;DHT22;10370;53.102;18.034;2023-09-12T18:02:27;21.30;99.90
20422;DHT22;10370;53.102;18.034;2023-09-12T18:07:50;21.20;99.90
20422;DHT22;10370;53.102;18.034;2023-09-12T18:13:13;21.10;99.90
20422;DHT22;10370;53.102;18.034;2023-09-12T18:18:35;21.00;99.90
20422;DHT22;10370;53.102;18.034;2023-09-12T18:23:58;20.80;99.90
20422;DHT22;10370;53.102;18.034;2023-09-12T18:29:21;20.70;99.90
20422;DHT22;10370;53.102;18.034;2023-09-12T18:34:45;20.60;99.90
20422;DHT22;10370;53.102;18.034;2023-09-12T18:40:07;20.50;99.90
20422;DHT22;10370;53.102;18.034;2023-09-12T18:45:31;20.10;99.90
20422;DHT22;10370;53.102;18.034;2023-09-12T18:50:55;19.90;99.90
20422;DHT22;10370;53.102;18.034;2023-09-12T18:56:17;19.70;99.90
20422;DHT22;10370;53.102;18.034;2023-09-12T19:01:40;19.50;99.90
20422;DHT22;10370;53.102;18.034;2023-09-12T19:07:05;19.30;99.90
20422;DHT22;10370;53.102;18.034;2023-09-12T19:12:28;19.20;99.90
20422;DHT22;10370;53.102;18.034;2023-09-12T19:17:51;19.10;99.90
20422;DHT22;10370;53.102;18.034;2023-09-12T19:23:18;19.00;99.90
20422;DHT22;10370;53.102;18.034;2023-09-12T19:28:41;18.90;99.90
20422;DHT22;10370;53.102;18.034;2023-09-12T19:34:05;18.80;99.90
20422;DHT22;10370;53.102;18.034;2023-09-12T19:39:29;18.70;99.90
20422;DHT22;10370;53.102;18.034;2023-09-12T19:44:52;18.60;99.90
20422;DHT22;10370;53.102;18.034;2023-09-12T19:50:15;18.40;99.90
20422;DHT22;10370;53.102;18.034;2023-09-12T19:55:39;18.30;99.90
20422;DHT22;10370;53.102;18.034;2023-09-12T20:01:01;18.30;99.90
20422;DHT22;10370;53.102;18.034;2023-09-12T20:06:33;18.10;99.90
20422;DHT22;10370;53.102;18.034;2023-09-12T20:11:56;18.00;99.90
20422;DHT22;10370;53.102;18.034;2023-09-12T20:17:23;17.90;99.90
20422;DHT22;10370;53.102;18.034;2023-09-12T20:22:48;17.80;99.90
20422;DHT22;10370;53.102;18.034;2023-09-12T20:28:12;17.80;99.90
20422;DHT22;10370;53.102;18.034;2023-09-12T20:33:38;17.80;99.90
20422;DHT22;10370;53.102;18.034;2023-09-12T20:39:24;17.70;99.90
20422;DHT22;10370;53.102;18.034;2023-09-12T20:44:48;17.60;99.90
20422;DHT22;10370;53.102;18.034;2023-09-12T20:50:16;17.40;99.90
20422;DHT22;10370;53.102;18.034;2023-09-12T20:55:40;17.30;99.90
20422;DHT22;10370;53.102;18.034;2023-09-12T21:01:03;17.10;99.90
20422;DHT22;10370;53.102;18.034;2023-09-12T21:06:30;17.00;99.90
20422;DHT22;10370;53.102;18.034;2023-09-12T21:11:54;17.00;99.90
20422;DHT22;10370;53.102;18.034;2023-09-12T21:17:17;17.00;99.90
20422;DHT22;10370;53.102;18.034;2023-09-12T21:22:40;16.80;99.90
20422;DHT22;10370;53.102;18.034;2023-09-12T21:28:03;16.80;99.90
20422;DHT22;10370;53.102;18.034;2023-09-12T21:33:28;16.70;99.90
20422;DHT22;10370;53.102;18.034;2023-09-12T21:38:51;16.60;99.90
20422;DHT22;10370;53.102;18.034;2023-09-12T21:44:14;16.60;99.90
20422;DHT22;10370;53.102;18.034;2023-09-12T21:49:36;16.50;99.90
20422;DHT22;10370;53.102;18.034;2023-09-12T21:54:59;16.40;99.90
20422;DHT22;10370;53.102;18.034;2023-09-12T22:00:23;16.20;99.90
20422;DHT22;10370;53.102;18.034;2023-09-12T22:05:46;16.10;99.90
20422;DHT22;10370;53.102;18.034;2023-09-12T22:11:13;16.10;99.90
20422;DHT22;10370;53.102;18.034;2023-09-12T22:16:36;16.10;99.90
20422;DHT22;10370;53.102;18.034;2023-09-12T22:21:59;16.10;99.90
20422;DHT22;10370;53.102;18.034;2023-09-12T22:27:21;16.10;99.90
20422;DHT22;10370;53.102;18.034;2023-09-12T22:32:47;16.00;99.90
20422;DHT22;10370;53.102;18.034;2023-09-12T22:38:11;15.80;99.90
20422;DHT22;10370;53.102;18.034;2023-09-12T22:43:37;15.80;99.90
20422;DHT22;10370;53.102;18.034;2023-09-12T22:49:00;15.80;99.90
20422;DHT22;10370;53.102;18.034;2023-09-12T22:54:23;15.50;99.90
20422;DHT22;10370;53.102;18.034;2023-09-12T22:59:46;15.40;99.90
20422;DHT22;10370;53.102;18.034;2023-09-12T23:05:08;15.30;99.90
20422;DHT22;10370;53.102;18.034;2023-09-12T23:10:31;15.30;99.90
20422;DHT22;10370;53.102;18.034;2023-09-12T23:15:54;15.20;99.90
20422;DHT22;10370;53.102;18.034;2023-09-12T23:21:20;15.30;99.90
20422;DHT22;10370;53.102;18.034;2023-09-12T23:26:43;15.20;99.90
20422;DHT22;10370;53.102;18.034;2023-09-12T23:32:06;15.20;99.90
20422;DHT22;10370;53.102;18.034;2023-09-12T23:37:29;15.20;99.90
20422;DHT22;10370;53.102;18.034;2023-09-12T23:42:53;15.10;99.90
20422;DHT22;10370;53.102;18.034;2023-09-12T23:48:16;15.10;99.90
20422;DHT22;10370;53.102;18.034;2023-09-12T23:53:38;15.00;99.90
20422;DHT22;10370;53.102;18.034;2023-09-12T23:59:01;15.00;99.90
